CYXC

Cranbrook Airport

Cranbrook, British Columbia, Canada
TAF CYXC 190038Z 1901/1913 VRB03KT P6SM SCT030 BKN070 TEMPO 1901/1909 5SM -SN BR SCT012 BKN020 OVC040 FM190900 VRB03KT P6SM SCT012 OVC025 TEMPO 1909/1913 3SM -SN SCT006 OVC012 RMK NXT FCST BY 190700Z
Issued Valid From Valid To
Jan-19 @ 00:38 UTC
(2 hours ago)
Jan-19 @ 01:00 UTC
(an hour ago)
Jan-19 @ 13:00 UTC
(in 11 hours)
Jan-19 @ 01:00 to Jan-19 @ 09:00
TAF CYXC 190038Z 1901/1913 VRB03KT P6SM SCT030 BKN070
Wind Visibility Clouds
Variable at 3 knots Greater than 6 miles
  • Scattered at 3,000' AGL
  • Broken at 7,000' AGL
Temporary Jan-19 @ 01:00 to Jan-19 @ 09:00
TEMPO 1901/1909 5SM -SN BR SCT012 BKN020 OVC040
Visibility Clouds Conditions
5 miles
  • Scattered at 1,200' AGL
  • Broken at 2,000' AGL
  • Overcast at 4,000' AGL
  • Light Snow
  • Mist
From Jan-19 @ 09:00 to Jan-19 @ 13:00
FM190900 VRB03KT P6SM SCT012 OVC025
Wind Visibility Clouds
Variable at 3 knots Greater than 6 miles
  • Scattered at 1,200' AGL
  • Overcast at 2,500' AGL
Temporary Jan-19 @ 09:00 to Jan-19 @ 13:00
TEMPO 1909/1913 3SM -SN SCT006 OVC012 RMK NXT FCST BY 190700Z
Visibility Clouds Conditions
3 miles
  • Scattered at 600' AGL
  • Overcast at 1,200' AGL
  • Light Snow
TAF CYXC 190038Z 1901/1913 VRB03KT P6SM SCT030 BKN070 TEMPO 1901/1909 5SM -SN BR SCT012 BKN020 OVC040 FM190900 VRB03KT P6SM SCT012 OVC025 TEMPO 1909/1913 3SM -SN SCT006 OVC012 RMK NXT FCST BY 190700Z
Issued Jan-19 @ 00:38 UTC
(2 hours ago)
Valid From Jan-19 @ 01:00 UTC
(an hour ago)
Valid To Jan-19 @ 13:00 UTC
(in 11 hours)
Jan-19 @ 01:00 - Jan-19 @ 09:00
Wind Visibility
Variable at 3 knots Greater than 6 miles
Clouds
  • Scattered at 3,000' AGL
  • Broken at 7,000' AGL
Temporary Jan-19 @ 01:00 - Jan-19 @ 09:00
Clouds
  • Scattered at 1,200' AGL
  • Broken at 2,000' AGL
  • Overcast at 4,000' AGL
Conditions
  • Light Snow
  • Mist
From Jan-19 @ 09:00 - Jan-19 @ 13:00
Wind Visibility
Variable at 3 knots Greater than 6 miles
Clouds
  • Scattered at 1,200' AGL
  • Overcast at 2,500' AGL
Temporary Jan-19 @ 09:00 - Jan-19 @ 13:00
Clouds
  • Scattered at 600' AGL
  • Overcast at 1,200' AGL
Conditions
  • Light Snow